Lochailort, United Kingdom
Current Conditions -  °F | °C
As of 2:20 PM on Tuesday 21 Oct 2014 (Local Time) from EGPU Reporting Station
Rain Showers Rain Showers  
Wind Chill: 36°   Ceiling: Unl
Heat Index: 46°   Visibility: 6mi
Dew Point: 36°   Wind: 36mph
Humidity: 66%   Direction: 320°NW
Pressure: 29.74"   Gusts: 54mph
Location:  56.87°N, 5.66°W
Report Text: EGPU 211320Z 32031G47KT 9999 VCSH FEW026CB SCT037 08/02 Q1007
Loading
Personal Weather Stations






























Interactive Weather Map
Tropical Storm Tracking
New forecast layout! Learn more

10-Day Weather Forecast

Advertisements
Track Severe Weather on mobile